createdAt,value
2022-11-29T00:00:59.427Z,13.58
2022-11-29T00:03:59.824Z,13.48
2022-11-29T00:06:48.340Z,13.54
2022-11-29T00:09:33.718Z,13.43
2022-11-29T00:12:23.497Z,13.59
2022-11-29T00:15:02.806Z,13.53
2022-11-29T00:17:48.042Z,13.46
2022-11-29T00:20:25.422Z,13.57
2022-11-29T00:23:43.030Z,13.56
2022-11-29T00:26:20.119Z,13.52
2022-11-29T00:28:50.225Z,13.31
2022-11-29T00:34:13.991Z,13.29
2022-11-29T00:36:58.940Z,13.19
2022-11-29T00:39:31.722Z,13.13
2022-11-29T00:42:11.050Z,12.93
2022-11-29T00:44:48.483Z,12.88
2022-11-29T00:47:25.096Z,13.00
2022-11-29T00:50:03.600Z,12.96
2022-11-29T00:52:34.518Z,12.95
2022-11-29T00:55:11.515Z,12.93
2022-11-29T01:01:06.441Z,12.87
2022-11-29T01:03:51.162Z,12.90
2022-11-29T01:06:25.282Z,12.95
2022-11-29T01:08:56.479Z,13.00
2022-11-29T01:11:26.389Z,13.06
2022-11-29T01:14:01.289Z,13.08
2022-11-29T01:16:59.931Z,13.00
2022-11-29T01:19:33.708Z,13.14
2022-11-29T01:22:08.276Z,13.11
2022-11-29T01:24:48.961Z,13.05
2022-11-29T01:27:24.357Z,12.98
2022-11-29T01:30:04.055Z,12.79
2022-11-29T01:32:37.769Z,12.90
2022-11-29T01:35:12.428Z,12.85
2022-11-29T01:38:01.341Z,12.76
2022-11-29T01:43:30.707Z,12.87
2022-11-29T01:46:14.331Z,12.84
2022-11-29T01:48:58.599Z,12.80
2022-11-29T01:51:41.157Z,12.80
2022-11-29T01:54:17.617Z,12.76
2022-11-29T01:56:54.398Z,12.79
2022-11-29T01:59:32.662Z,12.69
2022-11-29T02:02:27.481Z,12.73
2022-11-29T02:05:05.512Z,12.79
2022-11-29T02:07:35.888Z,12.76
2022-11-29T02:10:06.590Z,12.67
2022-11-29T02:12:43.453Z,12.65
2022-11-29T02:15:21.377Z,12.70
2022-11-29T02:18:04.633Z,12.68
2022-11-29T02:21:16.979Z,12.68
2022-11-29T02:24:25.044Z,12.66
2022-11-29T02:27:41.587Z,12.67
2022-11-29T02:30:30.599Z,12.45
2022-11-29T02:33:34.837Z,12.53
2022-11-29T02:36:44.345Z,12.52
2022-11-29T02:39:45.169Z,12.41
2022-11-29T02:42:56.114Z,12.54
2022-11-29T02:45:50.806Z,12.58
2022-11-29T02:48:32.242Z,12.60
2022-11-29T02:51:05.713Z,12.52
2022-11-29T02:53:41.009Z,12.56
2022-11-29T02:56:15.382Z,12.73
2022-11-29T02:58:56.965Z,12.74
2022-11-29T03:01:37.148Z,12.71
2022-11-29T03:04:13.062Z,12.60
2022-11-29T03:06:52.308Z,12.75
2022-11-29T03:09:33.054Z,12.67
2022-11-29T03:15:24.716Z,12.80
2022-11-29T03:18:04.176Z,12.82
2022-11-29T03:20:43.849Z,12.82
2022-11-29T03:23:26.566Z,12.86
2022-11-29T03:26:11.829Z,12.89
2022-11-29T03:28:47.212Z,12.88
2022-11-29T03:31:23.550Z,12.73
2022-11-29T03:33:57.093Z,12.86
2022-11-29T03:36:32.743Z,12.86
2022-11-29T03:39:11.881Z,12.87
2022-11-29T03:41:49.075Z,12.83
2022-11-29T03:44:24.579Z,12.77
2022-11-29T03:46:58.528Z,12.87
2022-11-29T03:49:33.183Z,12.87
2022-11-29T03:52:07.193Z,12.82
2022-11-29T03:54:42.980Z,12.70
2022-11-29T03:57:19.831Z,12.65
2022-11-29T04:00:02.823Z,12.80
2022-11-29T04:02:57.252Z,12.72
2022-11-29T04:05:52.483Z,12.67
2022-11-29T04:08:54.248Z,12.64
2022-11-29T04:12:04.292Z,12.52
2022-11-29T04:14:52.026Z,12.46
2022-11-29T04:18:12.011Z,12.43
2022-11-29T04:21:42.058Z,12.34
2022-11-29T04:24:55.587Z,12.37
2022-11-29T04:27:43.484Z,12.34
2022-11-29T04:30:22.309Z,12.40
2022-11-29T04:33:30.466Z,12.39
2022-11-29T04:36:33.911Z,12.40
2022-11-29T04:39:15.705Z,12.42
2022-11-29T04:42:31.635Z,12.38
2022-11-29T04:45:12.752Z,12.54
2022-11-29T04:48:00.457Z,12.55
2022-11-29T04:50:48.772Z,12.54
2022-11-29T04:53:34.966Z,12.55
2022-11-29T04:56:13.452Z,12.39
2022-11-29T04:58:44.290Z,12.57
2022-11-29T05:02:00.652Z,12.59
2022-11-29T05:04:41.935Z,12.58
2022-11-29T05:07:18.009Z,12.60
2022-11-29T05:09:54.640Z,12.56
2022-11-29T05:12:35.473Z,12.72
2022-11-29T05:15:33.117Z,12.68
2022-11-29T05:18:14.125Z,12.69
2022-11-29T05:20:51.488Z,12.68
2022-11-29T05:23:29.886Z,12.73
2022-11-29T05:26:05.754Z,12.74
2022-11-29T05:28:41.091Z,12.77
2022-11-29T05:31:58.315Z,12.78
2022-11-29T05:34:41.943Z,12.55
2022-11-29T05:37:19.968Z,12.71
2022-11-29T05:40:14.283Z,12.68
2022-11-29T05:42:53.538Z,12.68
2022-11-29T05:45:26.547Z,12.66
2022-11-29T05:48:08.640Z,12.68
2022-11-29T05:50:47.510Z,12.69
2022-11-29T05:53:35.561Z,12.52
2022-11-29T05:56:10.803Z,12.70
2022-11-29T05:58:53.889Z,12.71
2022-11-29T06:01:31.222Z,12.72
2022-11-29T06:04:10.304Z,12.71
2022-11-29T06:06:47.813Z,12.70
2022-11-29T06:09:37.163Z,12.67
2022-11-29T06:12:16.928Z,12.62
2022-11-29T06:15:14.583Z,12.63
2022-11-29T06:18:01.599Z,12.65
2022-11-29T06:21:03.004Z,12.66
2022-11-29T06:24:00.582Z,12.66
2022-11-29T06:26:51.414Z,12.53
2022-11-29T06:29:39.771Z,12.60
2022-11-29T06:32:17.672Z,12.58
2022-11-29T06:34:51.251Z,12.57
2022-11-29T06:37:26.645Z,12.57
2022-11-29T06:39:57.853Z,12.41
2022-11-29T06:42:32.019Z,12.37
2022-11-29T06:45:05.293Z,12.40
2022-11-29T06:47:36.991Z,12.29
2022-11-29T06:50:20.139Z,12.35
2022-11-29T06:52:59.059Z,12.30
2022-11-29T06:55:35.074Z,12.09
2022-11-29T06:58:17.559Z,12.05
2022-11-29T07:00:53.139Z,12.17
2022-11-29T07:04:00.224Z,12.13
2022-11-29T07:06:42.168Z,12.03
2022-11-29T07:09:17.350Z,11.95
2022-11-29T07:12:03.123Z,11.89
2022-11-29T07:14:42.626Z,11.88
2022-11-29T07:17:18.941Z,11.82
2022-11-29T07:19:52.868Z,11.80
2022-11-29T07:22:47.171Z,11.81
2022-11-29T07:25:31.578Z,11.78
2022-11-29T07:28:08.144Z,11.58
2022-11-29T07:30:50.050Z,11.76
2022-11-29T07:33:24.199Z,11.66
2022-11-29T07:36:09.777Z,11.68
2022-11-29T07:38:50.464Z,11.63
2022-11-29T07:41:22.681Z,11.53
2022-11-29T07:43:59.420Z,11.60
2022-11-29T07:46:34.949Z,11.50
2022-11-29T07:52:01.319Z,11.58
2022-11-29T07:54:33.426Z,11.50
2022-11-29T07:57:21.729Z,11.51
2022-11-29T08:00:16.778Z,11.44
2022-11-29T08:03:23.283Z,11.40
2022-11-29T08:09:15.104Z,11.31
2022-11-29T08:11:48.384Z,11.33
2022-11-29T08:14:55.911Z,11.31
2022-11-29T08:21:06.975Z,11.23
2022-11-29T08:23:52.409Z,11.20
2022-11-29T08:26:32.341Z,11.34
2022-11-29T08:29:08.156Z,11.34
2022-11-29T08:31:40.782Z,11.42
2022-11-29T08:34:39.387Z,11.46
2022-11-29T08:37:19.248Z,11.37
2022-11-29T08:40:00.423Z,11.60
2022-11-29T08:42:49.160Z,11.69
2022-11-29T08:45:55.492Z,11.77
2022-11-29T08:51:50.489Z,11.72
2022-11-29T08:54:43.633Z,11.96
2022-11-29T08:57:41.590Z,12.03
2022-11-29T09:00:23.806Z,12.10
2022-11-29T09:02:54.785Z,12.17
2022-11-29T09:05:37.486Z,12.19
2022-11-29T09:08:14.795Z,12.30
2022-11-29T09:10:46.630Z,12.10
2022-11-29T09:13:25.686Z,12.34
2022-11-29T09:16:10.947Z,12.33
2022-11-29T09:19:43.430Z,12.46
2022-11-29T09:30:45.479Z,12.60
2022-11-29T09:33:20.575Z,12.72
2022-11-29T09:39:00.015Z,13.01
2022-11-29T09:42:16.759Z,13.05
2022-11-29T09:44:57.074Z,13.08
2022-11-29T09:52:56.226Z,13.24
2022-11-29T09:56:02.758Z,13.37
2022-11-29T09:58:43.678Z,13.48
2022-11-29T10:01:19.067Z,13.57
2022-11-29T10:03:55.839Z,13.65
2022-11-29T10:06:27.583Z,13.69
2022-11-29T10:09:12.274Z,13.81
2022-11-29T10:11:44.929Z,13.90
2022-11-29T10:14:26.326Z,14.02
2022-11-29T10:17:00.233Z,14.12
2022-11-29T10:19:37.780Z,14.17
2022-11-29T10:22:36.537Z,14.24
2022-11-29T10:25:22.144Z,14.34
2022-11-29T10:27:58.572Z,14.41
2022-11-29T10:30:35.169Z,14.44
2022-11-29T10:33:13.926Z,14.50
2022-11-29T10:35:54.789Z,14.55
2022-11-29T10:38:49.174Z,14.57
2022-11-29T10:41:24.255Z,14.61
2022-11-29T10:44:12.285Z,14.68
2022-11-29T10:47:13.077Z,14.77
2022-11-29T10:49:45.117Z,14.77
2022-11-29T10:52:22.831Z,14.87
2022-11-29T10:55:09.469Z,14.88
2022-11-29T10:58:31.679Z,14.92
2022-11-29T11:21:05.596Z,15.01
2022-11-29T11:26:27.284Z,15.19
2022-11-29T11:32:34.515Z,15.57
2022-11-29T11:35:21.028Z,15.59
2022-11-29T11:38:22.167Z,15.62
2022-11-29T11:41:09.633Z,15.55
2022-11-29T11:44:45.703Z,15.60
2022-11-29T11:47:30.664Z,15.58
2022-11-29T11:50:13.082Z,15.71
2022-11-29T11:56:33.285Z,15.98
2022-11-29T11:59:41.932Z,16.07
2022-11-29T12:02:51.358Z,16.09
2022-11-29T12:05:25.235Z,16.12
2022-11-29T12:08:08.375Z,16.16
2022-11-29T12:10:42.184Z,15.99
2022-11-29T12:13:26.420Z,16.00
2022-11-29T12:16:00.250Z,15.94
2022-11-29T12:18:39.403Z,15.88
2022-11-29T12:21:16.845Z,15.71
2022-11-29T12:23:53.052Z,15.76
2022-11-29T12:29:35.299Z,15.82
2022-11-29T12:32:24.571Z,15.88
2022-11-29T12:43:16.965Z,16.08
2022-11-29T12:50:58.331Z,16.14
2022-11-29T12:54:36.120Z,16.11
2022-11-29T13:00:37.850Z,16.42
2022-11-29T13:03:37.354Z,16.40
2022-11-29T13:07:07.411Z,16.27
2022-11-29T13:10:18.238Z,16.48
2022-11-29T13:13:30.386Z,16.66
2022-11-29T13:19:55.296Z,16.74
2022-11-29T13:22:34.481Z,16.81
2022-11-29T13:29:06.988Z,16.87
2022-11-29T13:43:11.087Z,16.88
2022-11-29T13:46:54.062Z,16.78
2022-11-29T13:58:17.770Z,16.72
2022-11-29T14:02:49.902Z,16.62
2022-11-29T14:06:15.756Z,16.56
2022-11-29T14:09:49.194Z,16.76
2022-11-29T14:16:18.160Z,16.61
2022-11-29T14:19:26.650Z,16.63
2022-11-29T14:22:55.974Z,16.58
2022-11-29T14:25:51.802Z,16.51
2022-11-29T14:28:43.164Z,16.51
2022-11-29T14:31:40.626Z,16.47
2022-11-29T14:34:38.269Z,16.39
2022-11-29T14:37:45.765Z,16.36
2022-11-29T14:40:51.188Z,16.39
2022-11-29T14:43:55.670Z,16.34
2022-11-29T14:46:35.751Z,16.33
2022-11-29T14:49:12.275Z,16.34
2022-11-29T14:52:31.364Z,16.34
2022-11-29T15:06:00.026Z,16.20
2022-11-29T15:12:09.887Z,16.16
2022-11-29T15:14:55.857Z,16.16
2022-11-29T15:17:42.577Z,16.16
2022-11-29T15:23:50.408Z,16.05
2022-11-29T15:26:36.066Z,16.05
2022-11-29T15:29:39.587Z,16.10
2022-11-29T15:32:11.324Z,15.99
2022-11-29T15:35:06.720Z,16.04
2022-11-29T15:37:52.066Z,16.00
2022-11-29T15:40:43.644Z,15.94
2022-11-29T15:52:43.815Z,15.70
2022-11-29T15:55:13.504Z,15.81
2022-11-29T15:58:16.716Z,15.78
2022-11-29T16:00:51.510Z,15.71
2022-11-29T16:03:27.001Z,15.68
2022-11-29T16:06:11.178Z,15.68
2022-11-29T16:09:01.266Z,15.66
2022-11-29T16:11:37.523Z,15.62
2022-11-29T16:17:39.458Z,15.60
2022-11-29T16:20:51.195Z,15.59
2022-11-29T16:23:25.496Z,15.57
2022-11-29T16:26:21.758Z,15.55
2022-11-29T16:29:02.616Z,15.50
2022-11-29T16:31:50.886Z,15.38
2022-11-29T16:34:47.308Z,15.30
2022-11-29T16:37:24.518Z,15.32
2022-11-29T16:39:59.309Z,15.16
2022-11-29T16:42:44.969Z,15.23
2022-11-29T16:45:33.410Z,15.19
2022-11-29T16:48:45.755Z,15.14
2022-11-29T16:55:09.148Z,15.07
2022-11-29T16:58:04.634Z,14.97
2022-11-29T17:04:31.600Z,14.96
2022-11-29T17:07:50.980Z,14.94
2022-11-29T17:11:02.895Z,14.97
2022-11-29T17:13:43.486Z,14.96
2022-11-29T17:16:40.350Z,14.96
2022-11-29T17:19:22.121Z,14.99
2022-11-29T17:21:53.825Z,14.87
2022-11-29T17:24:35.396Z,14.98
2022-11-29T17:27:34.230Z,14.98
2022-11-29T17:33:23.467Z,14.93
2022-11-29T17:35:52.873Z,14.87
2022-11-29T17:38:27.817Z,14.88
